sensor_id;sensor_type;location;lat;lon;timestamp;temperature;humidity
13229;DHT22;6680;53.220;10.402;2022-10-16T00:00:49;12.90;99.90
13229;DHT22;6680;53.220;10.402;2022-10-16T00:03:16;12.90;99.90
13229;DHT22;6680;53.220;10.402;2022-10-16T00:05:43;12.90;99.90
13229;DHT22;6680;53.220;10.402;2022-10-16T00:08:11;12.90;99.90
13229;DHT22;6680;53.220;10.402;2022-10-16T00:10:39;12.90;99.90
13229;DHT22;6680;53.220;10.402;2022-10-16T00:13:07;12.90;99.90
13229;DHT22;6680;53.220;10.402;2022-10-16T00:15:35;12.80;99.90
13229;DHT22;6680;53.220;10.402;2022-10-16T00:18:03;12.80;99.90
13229;DHT22;6680;53.220;10.402;2022-10-16T00:20:29;12.70;99.90
13229;DHT22;6680;53.220;10.402;2022-10-16T00:22:58;12.70;99.90
13229;DHT22;6680;53.220;10.402;2022-10-16T00:25:25;12.70;99.90
13229;DHT22;6680;53.220;10.402;2022-10-16T00:27:52;12.70;99.90
13229;DHT22;6680;53.220;10.402;2022-10-16T00:30:20;12.70;99.90
13229;DHT22;6680;53.220;10.402;2022-10-16T00:32:47;12.70;99.90
13229;DHT22;6680;53.220;10.402;2022-10-16T00:35:13;12.70;99.90
13229;DHT22;6680;53.220;10.402;2022-10-16T00:37:40;12.40;99.90
13229;DHT22;6680;53.220;10.402;2022-10-16T00:40:07;12.60;99.90
13229;DHT22;6680;53.220;10.402;2022-10-16T00:42:34;12.60;99.90
13229;DHT22;6680;53.220;10.402;2022-10-16T00:45:02;12.60;99.90
13229;DHT22;6680;53.220;10.402;2022-10-16T00:47:33;12.60;99.90
13229;DHT22;6680;53.220;10.402;2022-10-16T00:50:07;12.60;99.90
13229;DHT22;6680;53.220;10.402;2022-10-16T00:52:34;12.60;99.90
13229;DHT22;6680;53.220;10.402;2022-10-16T00:55:03;12.60;99.90
13229;DHT22;6680;53.220;10.402;2022-10-16T00:57:31;12.30;99.90
13229;DHT22;6680;53.220;10.402;2022-10-16T00:59:58;12.50;99.90
13229;DHT22;6680;53.220;10.402;2022-10-16T01:02:25;12.40;99.90
13229;DHT22;6680;53.220;10.402;2022-10-16T01:04:53;12.30;99.90
13229;DHT22;6680;53.220;10.402;2022-10-16T01:07:30;12.30;99.90
13229;DHT22;6680;53.220;10.402;2022-10-16T01:10:07;12.30;99.90
13229;DHT22;6680;53.220;10.402;2022-10-16T01:12:40;12.20;99.90
13229;DHT22;6680;53.220;10.402;2022-10-16T01:15:14;12.20;99.90
13229;DHT22;6680;53.220;10.402;2022-10-16T01:17:45;12.40;99.90
13229;DHT22;6680;53.220;10.402;2022-10-16T01:20:22;12.10;99.90
13229;DHT22;6680;53.220;10.402;2022-10-16T01:25:52;12.10;99.90
13229;DHT22;6680;53.220;10.402;2022-10-16T01:28:25;12.10;99.90
13229;DHT22;6680;53.220;10.402;2022-10-16T01:30:58;12.00;99.90
13229;DHT22;6680;53.220;10.402;2022-10-16T01:33:29;12.00;99.90
13229;DHT22;6680;53.220;10.402;2022-10-16T01:36:00;12.00;99.90
13229;DHT22;6680;53.220;10.402;2022-10-16T01:38:31;12.00;99.90
13229;DHT22;6680;53.220;10.402;2022-10-16T01:41:05;11.90;99.90
13229;DHT22;6680;53.220;10.402;2022-10-16T01:43:37;11.90;99.90
13229;DHT22;6680;53.220;10.402;2022-10-16T01:46:06;11.90;99.90
13229;DHT22;6680;53.220;10.402;2022-10-16T01:48:34;11.90;99.90
13229;DHT22;6680;53.220;10.402;2022-10-16T01:51:04;11.90;99.90
13229;DHT22;6680;53.220;10.402;2022-10-16T01:53:32;11.90;99.90
13229;DHT22;6680;53.220;10.402;2022-10-16T01:56:00;11.80;99.90
13229;DHT22;6680;53.220;10.402;2022-10-16T01:58:30;11.80;99.90
13229;DHT22;6680;53.220;10.402;2022-10-16T02:01:03;11.80;99.90
13229;DHT22;6680;53.220;10.402;2022-10-16T02:03:31;11.80;99.90
13229;DHT22;6680;53.220;10.402;2022-10-16T02:05:59;11.80;99.90
13229;DHT22;6680;53.220;10.402;2022-10-16T02:08:28;11.70;99.90
13229;DHT22;6680;53.220;10.402;2022-10-16T02:10:55;11.70;99.90
13229;DHT22;6680;53.220;10.402;2022-10-16T02:13:25;11.60;99.90
13229;DHT22;6680;53.220;10.402;2022-10-16T02:15:53;11.60;99.90
13229;DHT22;6680;53.220;10.402;2022-10-16T02:18:21;11.60;99.90
13229;DHT22;6680;53.220;10.402;2022-10-16T02:20:51;11.60;99.90
13229;DHT22;6680;53.220;10.402;2022-10-16T02:23:24;11.60;99.90
13229;DHT22;6680;53.220;10.402;2022-10-16T02:25:54;11.60;99.90
13229;DHT22;6680;53.220;10.402;2022-10-16T02:28:25;11.60;99.90
13229;DHT22;6680;53.220;10.402;2022-10-16T02:30:56;11.60;99.90
13229;DHT22;6680;53.220;10.402;2022-10-16T02:33:25;11.70;99.90
13229;DHT22;6680;53.220;10.402;2022-10-16T02:35:53;11.80;99.90
13229;DHT22;6680;53.220;10.402;2022-10-16T02:38:21;11.80;99.90
13229;DHT22;6680;53.220;10.402;2022-10-16T02:40:49;11.70;99.90
13229;DHT22;6680;53.220;10.402;2022-10-16T02:43:16;11.80;99.90
13229;DHT22;6680;53.220;10.402;2022-10-16T02:45:42;11.80;99.90
13229;DHT22;6680;53.220;10.402;2022-10-16T02:48:09;11.70;99.90
13229;DHT22;6680;53.220;10.402;2022-10-16T02:50:37;11.70;99.90
13229;DHT22;6680;53.220;10.402;2022-10-16T02:53:04;11.70;99.90
13229;DHT22;6680;53.220;10.402;2022-10-16T02:55:31;11.70;99.90
13229;DHT22;6680;53.220;10.402;2022-10-16T02:57:57;11.70;99.90
13229;DHT22;6680;53.220;10.402;2022-10-16T03:00:24;11.60;99.90
13229;DHT22;6680;53.220;10.402;2022-10-16T03:02:51;11.60;99.90
13229;DHT22;6680;53.220;10.402;2022-10-16T03:05:18;11.60;99.90
13229;DHT22;6680;53.220;10.402;2022-10-16T03:07:46;11.70;99.90
13229;DHT22;6680;53.220;10.402;2022-10-16T03:10:12;11.60;99.90
13229;DHT22;6680;53.220;10.402;2022-10-16T03:12:39;11.70;99.90
13229;DHT22;6680;53.220;10.402;2022-10-16T03:15:07;11.70;99.90
13229;DHT22;6680;53.220;10.402;2022-10-16T03:17:33;11.40;99.90
13229;DHT22;6680;53.220;10.402;2022-10-16T03:20:00;11.60;99.90
13229;DHT22;6680;53.220;10.402;2022-10-16T03:22:27;11.60;99.90
13229;DHT22;6680;53.220;10.402;2022-10-16T03:24:55;11.60;99.90
13229;DHT22;6680;53.220;10.402;2022-10-16T03:27:22;11.60;99.90
13229;DHT22;6680;53.220;10.402;2022-10-16T03:29:48;11.50;99.90
13229;DHT22;6680;53.220;10.402;2022-10-16T03:32:15;11.50;99.90
13229;DHT22;6680;53.220;10.402;2022-10-16T03:34:42;11.60;99.90
13229;DHT22;6680;53.220;10.402;2022-10-16T03:37:09;11.60;99.90
13229;DHT22;6680;53.220;10.402;2022-10-16T03:39:35;11.60;99.90
13229;DHT22;6680;53.220;10.402;2022-10-16T03:42:03;11.50;99.90
13229;DHT22;6680;53.220;10.402;2022-10-16T03:44:30;11.60;99.90
13229;DHT22;6680;53.220;10.402;2022-10-16T03:46:57;11.50;99.90
13229;DHT22;6680;53.220;10.402;2022-10-16T03:49:23;11.50;99.90
13229;DHT22;6680;53.220;10.402;2022-10-16T03:51:50;11.50;99.90
13229;DHT22;6680;53.220;10.402;2022-10-16T03:54:17;11.40;99.90
13229;DHT22;6680;53.220;10.402;2022-10-16T03:56:43;11.40;99.90
13229;DHT22;6680;53.220;10.402;2022-10-16T03:59:11;11.40;99.90
13229;DHT22;6680;53.220;10.402;2022-10-16T04:01:38;11.40;99.90
13229;DHT22;6680;53.220;10.402;2022-10-16T04:04:05;11.40;99.90
13229;DHT22;6680;53.220;10.402;2022-10-16T04:06:31;11.40;99.90
13229;DHT22;6680;53.220;10.402;2022-10-16T04:08:59;11.40;99.90
13229;DHT22;6680;53.220;10.402;2022-10-16T04:11:25;11.40;99.90
13229;DHT22;6680;53.220;10.402;2022-10-16T04:13:52;11.40;99.90
13229;DHT22;6680;53.220;10.402;2022-10-16T04:16:20;11.30;99.90
13229;DHT22;6680;53.220;10.402;2022-10-16T04:18:47;11.30;99.90
13229;DHT22;6680;53.220;10.402;2022-10-16T04:21:14;11.30;99.90
13229;DHT22;6680;53.220;10.402;2022-10-16T04:23:41;11.20;99.90
13229;DHT22;6680;53.220;10.402;2022-10-16T04:26:08;11.20;99.90
13229;DHT22;6680;53.220;10.402;2022-10-16T04:28:35;11.10;99.90
13229;DHT22;6680;53.220;10.402;2022-10-16T04:31:03;11.10;99.90
13229;DHT22;6680;53.220;10.402;2022-10-16T04:33:32;11.10;99.90
13229;DHT22;6680;53.220;10.402;2022-10-16T04:35:59;11.10;99.90
13229;DHT22;6680;53.220;10.402;2022-10-16T04:38:27;11.00;99.90
13229;DHT22;6680;53.220;10.402;2022-10-16T04:40:54;11.10;99.90
13229;DHT22;6680;53.220;10.402;2022-10-16T04:43:21;11.10;99.90
13229;DHT22;6680;53.220;10.402;2022-10-16T04:45:48;11.10;99.90
13229;DHT22;6680;53.220;10.402;2022-10-16T04:48:15;11.10;99.90
13229;DHT22;6680;53.220;10.402;2022-10-16T04:50:43;11.20;99.90
13229;DHT22;6680;53.220;10.402;2022-10-16T04:53:10;11.20;99.90
13229;DHT22;6680;53.220;10.402;2022-10-16T04:55:37;11.20;99.90
13229;DHT22;6680;53.220;10.402;2022-10-16T04:58:04;11.30;99.90
13229;DHT22;6680;53.220;10.402;2022-10-16T05:00:31;11.30;99.90
13229;DHT22;6680;53.220;10.402;2022-10-16T05:02:57;11.30;99.90
13229;DHT22;6680;53.220;10.402;2022-10-16T05:05:26;11.40;99.90
13229;DHT22;6680;53.220;10.402;2022-10-16T05:07:54;11.40;99.90
13229;DHT22;6680;53.220;10.402;2022-10-16T05:10:21;11.40;99.90
13229;DHT22;6680;53.220;10.402;2022-10-16T05:12:47;11.40;99.90
13229;DHT22;6680;53.220;10.402;2022-10-16T05:15:14;11.40;99.90
13229;DHT22;6680;53.220;10.402;2022-10-16T05:17:41;11.10;99.90
13229;DHT22;6680;53.220;10.402;2022-10-16T05:20:08;11.40;99.90
13229;DHT22;6680;53.220;10.402;2022-10-16T05:22:35;11.40;99.90
13229;DHT22;6680;53.220;10.402;2022-10-16T05:25:03;11.40;99.90
13229;DHT22;6680;53.220;10.402;2022-10-16T05:27:30;11.30;99.90
13229;DHT22;6680;53.220;10.402;2022-10-16T05:29:57;11.30;99.90
13229;DHT22;6680;53.220;10.402;2022-10-16T05:32:24;11.30;99.90
13229;DHT22;6680;53.220;10.402;2022-10-16T05:34:50;11.30;99.90
13229;DHT22;6680;53.220;10.402;2022-10-16T05:37:17;11.30;99.90
13229;DHT22;6680;53.220;10.402;2022-10-16T05:39:44;11.40;99.90
13229;DHT22;6680;53.220;10.402;2022-10-16T05:42:12;11.30;99.90
13229;DHT22;6680;53.220;10.402;2022-10-16T05:44:38;11.30;99.90
13229;DHT22;6680;53.220;10.402;2022-10-16T05:47:05;11.30;99.90
13229;DHT22;6680;53.220;10.402;2022-10-16T05:49:32;11.30;99.90
13229;DHT22;6680;53.220;10.402;2022-10-16T05:51:58;11.30;99.90
13229;DHT22;6680;53.220;10.402;2022-10-16T05:54:25;11.30;99.90
13229;DHT22;6680;53.220;10.402;2022-10-16T05:56:52;11.30;99.90
13229;DHT22;6680;53.220;10.402;2022-10-16T05:59:20;11.20;99.90
13229;DHT22;6680;53.220;10.402;2022-10-16T06:01:46;11.20;99.90
13229;DHT22;6680;53.220;10.402;2022-10-16T06:04:13;11.20;99.90
13229;DHT22;6680;53.220;10.402;2022-10-16T06:06:40;11.30;99.90
13229;DHT22;6680;53.220;10.402;2022-10-16T06:09:06;11.30;99.90
13229;DHT22;6680;53.220;10.402;2022-10-16T06:11:33;11.30;99.90
13229;DHT22;6680;53.220;10.402;2022-10-16T06:14:01;11.30;99.90
13229;DHT22;6680;53.220;10.402;2022-10-16T06:16:34;11.30;99.90
13229;DHT22;6680;53.220;10.402;2022-10-16T06:19:02;11.30;99.90
13229;DHT22;6680;53.220;10.402;2022-10-16T06:21:31;11.20;99.90
13229;DHT22;6680;53.220;10.402;2022-10-16T06:23:58;11.20;99.90
13229;DHT22;6680;53.220;10.402;2022-10-16T06:26:27;11.20;99.90
13229;DHT22;6680;53.220;10.402;2022-10-16T06:28:54;11.20;99.90
13229;DHT22;6680;53.220;10.402;2022-10-16T06:31:21;11.20;99.90
13229;DHT22;6680;53.220;10.402;2022-10-16T06:33:51;11.20;99.90
13229;DHT22;6680;53.220;10.402;2022-10-16T06:36:18;11.20;99.90
13229;DHT22;6680;53.220;10.402;2022-10-16T06:38:45;11.20;99.90
13229;DHT22;6680;53.220;10.402;2022-10-16T06:41:13;11.20;99.90
13229;DHT22;6680;53.220;10.402;2022-10-16T06:43:40;11.20;99.90
13229;DHT22;6680;53.220;10.402;2022-10-16T06:46:10;11.20;99.90
13229;DHT22;6680;53.220;10.402;2022-10-16T06:48:37;11.20;99.90
13229;DHT22;6680;53.220;10.402;2022-10-16T06:51:09;11.20;99.90
13229;DHT22;6680;53.220;10.402;2022-10-16T06:53:37;11.20;99.90
13229;DHT22;6680;53.220;10.402;2022-10-16T06:56:08;11.30;99.90
13229;DHT22;6680;53.220;10.402;2022-10-16T06:58:35;11.30;99.90
13229;DHT22;6680;53.220;10.402;2022-10-16T07:01:02;11.30;99.90
13229;DHT22;6680;53.220;10.402;2022-10-16T07:03:28;11.40;99.90
13229;DHT22;6680;53.220;10.402;2022-10-16T07:05:55;11.40;99.90
13229;DHT22;6680;53.220;10.402;2022-10-16T07:08:23;11.40;99.90
13229;DHT22;6680;53.220;10.402;2022-10-16T07:10:58;11.30;99.90
13229;DHT22;6680;53.220;10.402;2022-10-16T07:13:25;11.40;99.90
13229;DHT22;6680;53.220;10.402;2022-10-16T07:15:52;11.30;99.90
13229;DHT22;6680;53.220;10.402;2022-10-16T07:18:18;11.40;99.90
13229;DHT22;6680;53.220;10.402;2022-10-16T07:20:45;11.40;99.90
13229;DHT22;6680;53.220;10.402;2022-10-16T07:23:12;11.40;99.90
13229;DHT22;6680;53.220;10.402;2022-10-16T07:25:40;11.40;99.90
13229;DHT22;6680;53.220;10.402;2022-10-16T07:28:07;11.50;99.90
13229;DHT22;6680;53.220;10.402;2022-10-16T07:30:35;11.60;99.90
13229;DHT22;6680;53.220;10.402;2022-10-16T07:33:02;11.60;99.90
13229;DHT22;6680;53.220;10.402;2022-10-16T07:35:29;11.70;99.90
13229;DHT22;6680;53.220;10.402;2022-10-16T07:37:56;11.80;99.90
13229;DHT22;6680;53.220;10.402;2022-10-16T07:40:22;11.80;99.90
13229;DHT22;6680;53.220;10.402;2022-10-16T07:42:51;11.90;99.90
13229;DHT22;6680;53.220;10.402;2022-10-16T07:45:17;12.00;99.90
13229;DHT22;6680;53.220;10.402;2022-10-16T07:47:44;11.80;99.90
13229;DHT22;6680;53.220;10.402;2022-10-16T07:50:11;12.10;99.90
13229;DHT22;6680;53.220;10.402;2022-10-16T07:52:37;12.20;99.90
13229;DHT22;6680;53.220;10.402;2022-10-16T07:55:05;12.20;99.90
13229;DHT22;6680;53.220;10.402;2022-10-16T08:00:00;12.40;99.90
13229;DHT22;6680;53.220;10.402;2022-10-16T08:02:27;12.60;99.90
13229;DHT22;6680;53.220;10.402;2022-10-16T08:04:53;12.70;99.90
13229;DHT22;6680;53.220;10.402;2022-10-16T08:07:20;12.80;99.90
13229;DHT22;6680;53.220;10.402;2022-10-16T08:09:49;12.90;99.90
13229;DHT22;6680;53.220;10.402;2022-10-16T08:12:17;13.10;99.90
13229;DHT22;6680;53.220;10.402;2022-10-16T08:14:43;13.30;99.90
13229;DHT22;6680;53.220;10.402;2022-10-16T08:17:13;13.50;99.90
13229;DHT22;6680;53.220;10.402;2022-10-16T08:19:44;13.80;99.90
13229;DHT22;6680;53.220;10.402;2022-10-16T08:22:10;14.10;99.90
13229;DHT22;6680;53.220;10.402;2022-10-16T08:24:37;14.30;99.90
13229;DHT22;6680;53.220;10.402;2022-10-16T08:27:04;14.40;99.90
13229;DHT22;6680;53.220;10.402;2022-10-16T08:29:31;14.60;99.90
13229;DHT22;6680;53.220;10.402;2022-10-16T08:31:58;14.70;99.90
13229;DHT22;6680;53.220;10.402;2022-10-16T08:34:26;14.80;99.90
13229;DHT22;6680;53.220;10.402;2022-10-16T08:36:53;14.80;99.90
13229;DHT22;6680;53.220;10.402;2022-10-16T08:39:20;14.70;99.90
13229;DHT22;6680;53.220;10.402;2022-10-16T08:42:10;14.70;99.90
13229;DHT22;6680;53.220;10.402;2022-10-16T08:44:59;14.70;99.90
13229;DHT22;6680;53.220;10.402;2022-10-16T08:47:39;14.70;99.90
13229;DHT22;6680;53.220;10.402;2022-10-16T08:50:17;14.70;99.90
13229;DHT22;6680;53.220;10.402;2022-10-16T08:52:45;14.70;99.90
13229;DHT22;6680;53.220;10.402;2022-10-16T08:55:29;14.70;99.90
13229;DHT22;6680;53.220;10.402;2022-10-16T08:57:57;14.70;99.90
13229;DHT22;6680;53.220;10.402;2022-10-16T09:00:24;14.80;99.90
13229;DHT22;6680;53.220;10.402;2022-10-16T09:02:57;14.80;99.90
13229;DHT22;6680;53.220;10.402;2022-10-16T09:05:48;14.80;99.90
13229;DHT22;6680;53.220;10.402;2022-10-16T09:08:27;14.80;99.90
13229;DHT22;6680;53.220;10.402;2022-10-16T09:10:58;14.80;99.90
13229;DHT22;6680;53.220;10.402;2022-10-16T09:13:29;14.90;99.90
13229;DHT22;6680;53.220;10.402;2022-10-16T09:16:04;15.00;99.90
13229;DHT22;6680;53.220;10.402;2022-10-16T09:18:43;15.00;99.90
13229;DHT22;6680;53.220;10.402;2022-10-16T09:21:18;15.00;99.90
13229;DHT22;6680;53.220;10.402;2022-10-16T09:23:46;15.00;99.90
13229;DHT22;6680;53.220;10.402;2022-10-16T09:26:15;15.10;99.90
13229;DHT22;6680;53.220;10.402;2022-10-16T09:28:43;15.10;99.90
13229;DHT22;6680;53.220;10.402;2022-10-16T09:31:16;15.20;99.90
13229;DHT22;6680;53.220;10.402;2022-10-16T09:33:45;15.30;99.90
13229;DHT22;6680;53.220;10.402;2022-10-16T09:36:15;15.30;99.90
13229;DHT22;6680;53.220;10.402;2022-10-16T09:38:41;15.30;99.90
13229;DHT22;6680;53.220;10.402;2022-10-16T09:41:17;15.40;99.90
13229;DHT22;6680;53.220;10.402;2022-10-16T09:43:49;15.50;99.90
13229;DHT22;6680;53.220;10.402;2022-10-16T09:46:25;15.60;99.90
13229;DHT22;6680;53.220;10.402;2022-10-16T09:48:55;15.60;99.90
13229;DHT22;6680;53.220;10.402;2022-10-16T09:51:25;15.70;99.90
13229;DHT22;6680;53.220;10.402;2022-10-16T09:53:55;15.80;99.90
13229;DHT22;6680;53.220;10.402;2022-10-16T09:56:24;15.70;99.90
13229;DHT22;6680;53.220;10.402;2022-10-16T09:58:52;15.80;99.90
13229;DHT22;6680;53.220;10.402;2022-10-16T10:01:20;15.90;99.90
13229;DHT22;6680;53.220;10.402;2022-10-16T10:03:47;15.80;99.90
13229;DHT22;6680;53.220;10.402;2022-10-16T10:06:29;15.90;99.90
13229;DHT22;6680;53.220;10.402;2022-10-16T10:09:04;16.00;99.90
13229;DHT22;6680;53.220;10.402;2022-10-16T10:11:44;15.90;99.90
13229;DHT22;6680;53.220;10.402;2022-10-16T10:14:19;15.90;99.90
13229;DHT22;6680;53.220;10.402;2022-10-16T10:16:47;15.90;99.90
13229;DHT22;6680;53.220;10.402;2022-10-16T10:19:16;16.00;99.90
13229;DHT22;6680;53.220;10.402;2022-10-16T10:21:44;16.00;99.90
13229;DHT22;6680;53.220;10.402;2022-10-16T10:24:13;16.10;99.90
13229;DHT22;6680;53.220;10.402;2022-10-16T10:26:46;16.10;99.90
13229;DHT22;6680;53.220;10.402;2022-10-16T10:29:22;16.20;99.90
13229;DHT22;6680;53.220;10.402;2022-10-16T10:31:59;16.30;99.90
13229;DHT22;6680;53.220;10.402;2022-10-16T10:34:44;16.30;99.90
13229;DHT22;6680;53.220;10.402;2022-10-16T10:37:29;16.30;99.90
13229;DHT22;6680;53.220;10.402;2022-10-16T10:40:07;16.30;99.90
13229;DHT22;6680;53.220;10.402;2022-10-16T10:42:47;16.40;99.90
13229;DHT22;6680;53.220;10.402;2022-10-16T10:45:24;16.50;99.90
13229;DHT22;6680;53.220;10.402;2022-10-16T10:48:03;16.50;99.90
13229;DHT22;6680;53.220;10.402;2022-10-16T10:50:38;16.60;99.90
13229;DHT22;6680;53.220;10.402;2022-10-16T10:53:16;16.60;99.90
13229;DHT22;6680;53.220;10.402;2022-10-16T10:55:49;16.70;99.90
13229;DHT22;6680;53.220;10.402;2022-10-16T10:58:42;16.70;99.90
13229;DHT22;6680;53.220;10.402;2022-10-16T11:01:12;16.80;99.90
13229;DHT22;6680;53.220;10.402;2022-10-16T11:03:58;16.80;99.90
13229;DHT22;6680;53.220;10.402;2022-10-16T11:06:31;16.90;99.90
13229;DHT22;6680;53.220;10.402;2022-10-16T11:09:03;17.00;99.90
13229;DHT22;6680;53.220;10.402;2022-10-16T11:11:40;17.00;99.90
13229;DHT22;6680;53.220;10.402;2022-10-16T11:14:15;17.00;99.90
13229;DHT22;6680;53.220;10.402;2022-10-16T11:16:49;17.00;99.90
13229;DHT22;6680;53.220;10.402;2022-10-16T11:19:26;17.10;99.90
13229;DHT22;6680;53.220;10.402;2022-10-16T11:22:01;17.20;99.90
13229;DHT22;6680;53.220;10.402;2022-10-16T11:24:37;17.30;99.90
13229;DHT22;6680;53.220;10.402;2022-10-16T11:27:09;17.40;99.90
13229;DHT22;6680;53.220;10.402;2022-10-16T11:29:45;17.60;99.90
13229;DHT22;6680;53.220;10.402;2022-10-16T11:32:19;17.70;99.90
13229;DHT22;6680;53.220;10.402;2022-10-16T11:34:50;17.80;99.90
13229;DHT22;6680;53.220;10.402;2022-10-16T11:37:20;17.80;99.90
13229;DHT22;6680;53.220;10.402;2022-10-16T11:39:52;17.80;99.90
13229;DHT22;6680;53.220;10.402;2022-10-16T11:42:27;17.80;99.90
13229;DHT22;6680;53.220;10.402;2022-10-16T11:45:00;17.90;99.90
13229;DHT22;6680;53.220;10.402;2022-10-16T11:47:34;17.90;99.90
13229;DHT22;6680;53.220;10.402;2022-10-16T11:50:04;17.90;99.90
13229;DHT22;6680;53.220;10.402;2022-10-16T11:52:36;17.90;99.90
13229;DHT22;6680;53.220;10.402;2022-10-16T11:55:14;17.90;99.90
13229;DHT22;6680;53.220;10.402;2022-10-16T11:57:46;17.90;99.90
13229;DHT22;6680;53.220;10.402;2022-10-16T12:00:21;18.00;99.90
13229;DHT22;6680;53.220;10.402;2022-10-16T12:02:56;18.00;99.90
13229;DHT22;6680;53.220;10.402;2022-10-16T12:05:30;18.00;99.90
13229;DHT22;6680;53.220;10.402;2022-10-16T12:08:07;18.00;99.90
13229;DHT22;6680;53.220;10.402;2022-10-16T12:10:39;18.00;99.90
13229;DHT22;6680;53.220;10.402;2022-10-16T12:13:31;18.00;99.90
13229;DHT22;6680;53.220;10.402;2022-10-16T12:16:06;18.00;99.90
13229;DHT22;6680;53.220;10.402;2022-10-16T12:18:33;18.00;99.90
13229;DHT22;6680;53.220;10.402;2022-10-16T12:21:00;18.00;99.90
13229;DHT22;6680;53.220;10.402;2022-10-16T12:23:36;18.10;99.90
13229;DHT22;6680;53.220;10.402;2022-10-16T12:26:05;18.10;99.90
13229;DHT22;6680;53.220;10.402;2022-10-16T12:28:33;18.00;99.90
13229;DHT22;6680;53.220;10.402;2022-10-16T12:31:02;17.90;99.90
13229;DHT22;6680;53.220;10.402;2022-10-16T12:33:31;17.80;99.90
13229;DHT22;6680;53.220;10.402;2022-10-16T12:36:02;17.80;99.90
13229;DHT22;6680;53.220;10.402;2022-10-16T12:38:35;17.80;99.90
13229;DHT22;6680;53.220;10.402;2022-10-16T12:41:06;17.80;99.90
13229;DHT22;6680;53.220;10.402;2022-10-16T12:43:39;17.90;99.90
13229;DHT22;6680;53.220;10.402;2022-10-16T12:46:33;17.90;99.90
13229;DHT22;6680;53.220;10.402;2022-10-16T12:49:31;17.90;99.90
13229;DHT22;6680;53.220;10.402;2022-10-16T12:51:58;17.90;99.90
13229;DHT22;6680;53.220;10.402;2022-10-16T12:54:28;18.00;99.90
13229;DHT22;6680;53.220;10.402;2022-10-16T12:57:23;18.00;99.90
13229;DHT22;6680;53.220;10.402;2022-10-16T13:00:02;17.90;99.90
13229;DHT22;6680;53.220;10.402;2022-10-16T13:02:51;17.80;99.90
13229;DHT22;6680;53.220;10.402;2022-10-16T13:05:29;17.70;99.90
13229;DHT22;6680;53.220;10.402;2022-10-16T13:08:11;17.70;99.90
13229;DHT22;6680;53.220;10.402;2022-10-16T13:10:47;17.70;99.90
13229;DHT22;6680;53.220;10.402;2022-10-16T13:13:41;17.80;99.90
13229;DHT22;6680;53.220;10.402;2022-10-16T13:16:18;17.80;99.90
13229;DHT22;6680;53.220;10.402;2022-10-16T13:18:57;17.90;99.90
13229;DHT22;6680;53.220;10.402;2022-10-16T13:21:37;17.90;99.90
13229;DHT22;6680;53.220;10.402;2022-10-16T13:24:14;18.00;99.90
13229;DHT22;6680;53.220;10.402;2022-10-16T13:26:48;17.90;99.90
13229;DHT22;6680;53.220;10.402;2022-10-16T13:29:18;17.90;99.90
13229;DHT22;6680;53.220;10.402;2022-10-16T13:31:45;17.90;99.90
13229;DHT22;6680;53.220;10.402;2022-10-16T13:34:15;17.80;99.90
13229;DHT22;6680;53.220;10.402;2022-10-16T13:36:45;17.80;99.90
13229;DHT22;6680;53.220;10.402;2022-10-16T13:39:14;17.80;99.90
13229;DHT22;6680;53.220;10.402;2022-10-16T13:41:43;17.90;99.90
13229;DHT22;6680;53.220;10.402;2022-10-16T13:44:15;17.90;99.90
13229;DHT22;6680;53.220;10.402;2022-10-16T13:46:46;17.90;99.90
13229;DHT22;6680;53.220;10.402;2022-10-16T13:49:15;17.90;99.90
13229;DHT22;6680;53.220;10.402;2022-10-16T13:51:54;17.90;99.90
13229;DHT22;6680;53.220;10.402;2022-10-16T13:54:21;17.90;99.90
13229;DHT22;6680;53.220;10.402;2022-10-16T13:56:48;17.90;99.90
13229;DHT22;6680;53.220;10.402;2022-10-16T13:59:23;17.80;99.90
13229;DHT22;6680;53.220;10.402;2022-10-16T14:01:54;17.80;99.90
13229;DHT22;6680;53.220;10.402;2022-10-16T14:04:22;17.80;99.90
13229;DHT22;6680;53.220;10.402;2022-10-16T14:06:51;17.70;99.90
13229;DHT22;6680;53.220;10.402;2022-10-16T14:09:22;17.70;99.90
13229;DHT22;6680;53.220;10.402;2022-10-16T14:11:52;17.70;99.90
13229;DHT22;6680;53.220;10.402;2022-10-16T14:14:19;17.60;99.90
13229;DHT22;6680;53.220;10.402;2022-10-16T14:16:47;17.60;99.90
13229;DHT22;6680;53.220;10.402;2022-10-16T14:19:20;17.50;99.90
13229;DHT22;6680;53.220;10.402;2022-10-16T14:21:48;17.40;99.90
13229;DHT22;6680;53.220;10.402;2022-10-16T14:24:25;17.50;99.90
13229;DHT22;6680;53.220;10.402;2022-10-16T14:26:53;17.40;99.90
13229;DHT22;6680;53.220;10.402;2022-10-16T14:29:22;17.30;99.90
13229;DHT22;6680;53.220;10.402;2022-10-16T14:31:57;17.30;99.90
13229;DHT22;6680;53.220;10.402;2022-10-16T14:34:27;17.20;99.90
13229;DHT22;6680;53.220;10.402;2022-10-16T14:36:56;17.20;99.90
13229;DHT22;6680;53.220;10.402;2022-10-16T14:39:25;17.10;99.90
13229;DHT22;6680;53.220;10.402;2022-10-16T14:41:54;17.00;99.90
13229;DHT22;6680;53.220;10.402;2022-10-16T14:44:25;17.00;99.90
13229;DHT22;6680;53.220;10.402;2022-10-16T14:46:53;17.00;99.90
13229;DHT22;6680;53.220;10.402;2022-10-16T14:49:21;16.90;99.90
13229;DHT22;6680;53.220;10.402;2022-10-16T14:51:50;16.90;99.90
13229;DHT22;6680;53.220;10.402;2022-10-16T14:54:18;16.80;99.90
13229;DHT22;6680;53.220;10.402;2022-10-16T14:56:47;16.80;99.90
13229;DHT22;6680;53.220;10.402;2022-10-16T14:59:17;16.70;99.90
13229;DHT22;6680;53.220;10.402;2022-10-16T15:01:45;16.70;99.90
13229;DHT22;6680;53.220;10.402;2022-10-16T15:04:13;16.60;99.90
13229;DHT22;6680;53.220;10.402;2022-10-16T15:06:40;16.50;99.90
13229;DHT22;6680;53.220;10.402;2022-10-16T15:09:09;16.50;99.90
13229;DHT22;6680;53.220;10.402;2022-10-16T15:11:36;16.40;99.90
13229;DHT22;6680;53.220;10.402;2022-10-16T15:14:03;16.40;99.90
13229;DHT22;6680;53.220;10.402;2022-10-16T15:16:30;16.60;99.90
13229;DHT22;6680;53.220;10.402;2022-10-16T15:18:57;16.70;99.90
13229;DHT22;6680;53.220;10.402;2022-10-16T15:21:25;16.80;99.90
13229;DHT22;6680;53.220;10.402;2022-10-16T15:23:53;16.90;99.90
13229;DHT22;6680;53.220;10.402;2022-10-16T15:26:23;17.10;99.90
13229;DHT22;6680;53.220;10.402;2022-10-16T15:28:50;17.20;99.90
13229;DHT22;6680;53.220;10.402;2022-10-16T15:31:16;17.20;99.90
13229;DHT22;6680;53.220;10.402;2022-10-16T15:33:43;17.30;99.90
13229;DHT22;6680;53.220;10.402;2022-10-16T15:36:13;17.20;99.90
13229;DHT22;6680;53.220;10.402;2022-10-16T15:38:40;17.20;99.90
13229;DHT22;6680;53.220;10.402;2022-10-16T15:41:06;17.20;99.90
13229;DHT22;6680;53.220;10.402;2022-10-16T15:43:34;17.20;99.90
13229;DHT22;6680;53.220;10.402;2022-10-16T15:46:03;17.10;99.90
13229;DHT22;6680;53.220;10.402;2022-10-16T15:48:31;17.10;99.90
13229;DHT22;6680;53.220;10.402;2022-10-16T15:50:59;17.00;99.90
13229;DHT22;6680;53.220;10.402;2022-10-16T15:53:26;17.00;99.90